sensor_id;sensor_type;location;lat;lon;timestamp;P1;durP1;ratioP1;P2;durP2;ratioP2
7203;SDS011;3643;52.460;13.322;2023-04-24T00:01:51;4.83;;;4.30;;
7203;SDS011;3643;52.460;13.322;2023-04-24T00:04:19;5.40;;;4.90;;
7203;SDS011;3643;52.460;13.322;2023-04-24T00:06:50;6.17;;;5.13;;
7203;SDS011;3643;52.460;13.322;2023-04-24T00:09:20;5.23;;;4.73;;
7203;SDS011;3643;52.460;13.322;2023-04-24T00:11:49;5.50;;;4.97;;
7203;SDS011;3643;52.460;13.322;2023-04-24T00:14:18;5.50;;;5.00;;
7203;SDS011;3643;52.460;13.322;2023-04-24T00:16:46;6.07;;;5.03;;
7203;SDS011;3643;52.460;13.322;2023-04-24T00:19:15;7.23;;;5.10;;
7203;SDS011;3643;52.460;13.322;2023-04-24T00:21:44;4.77;;;4.37;;
7203;SDS011;3643;52.460;13.322;2023-04-24T00:24:14;6.13;;;4.70;;
7203;SDS011;3643;52.460;13.322;2023-04-24T00:26:42;4.73;;;4.23;;
7203;SDS011;3643;52.460;13.322;2023-04-24T00:29:11;5.87;;;4.97;;
7203;SDS011;3643;52.460;13.322;2023-04-24T00:31:39;5.63;;;4.87;;
7203;SDS011;3643;52.460;13.322;2023-04-24T00:34:08;6.40;;;5.23;;
7203;SDS011;3643;52.460;13.322;2023-04-24T00:36:38;5.70;;;5.20;;
7203;SDS011;3643;52.460;13.322;2023-04-24T00:39:06;5.20;;;4.70;;
7203;SDS011;3643;52.460;13.322;2023-04-24T00:41:37;5.27;;;4.77;;
7203;SDS011;3643;52.460;13.322;2023-04-24T00:44:06;5.23;;;4.73;;
7203;SDS011;3643;52.460;13.322;2023-04-24T00:46:34;4.60;;;4.20;;
7203;SDS011;3643;52.460;13.322;2023-04-24T00:49:04;6.37;;;5.23;;
7203;SDS011;3643;52.460;13.322;2023-04-24T00:51:33;5.63;;;5.00;;
7203;SDS011;3643;52.460;13.322;2023-04-24T00:54:03;5.23;;;4.73;;
7203;SDS011;3643;52.460;13.322;2023-04-24T00:56:31;5.97;;;5.37;;
7203;SDS011;3643;52.460;13.322;2023-04-24T00:59:02;5.83;;;5.23;;
7203;SDS011;3643;52.460;13.322;2023-04-24T01:01:32;5.93;;;5.33;;
7203;SDS011;3643;52.460;13.322;2023-04-24T01:04:01;5.33;;;4.83;;
7203;SDS011;3643;52.460;13.322;2023-04-24T01:06:31;5.83;;;4.87;;
7203;SDS011;3643;52.460;13.322;2023-04-24T01:09:00;5.40;;;4.60;;
7203;SDS011;3643;52.460;13.322;2023-04-24T01:11:29;5.60;;;5.10;;
7203;SDS011;3643;52.460;13.322;2023-04-24T01:13:58;5.93;;;5.33;;
7203;SDS011;3643;52.460;13.322;2023-04-24T01:16:29;5.33;;;4.83;;
7203;SDS011;3643;52.460;13.322;2023-04-24T01:18:58;5.30;;;4.80;;
7203;SDS011;3643;52.460;13.322;2023-04-24T01:21:26;5.90;;;4.90;;
7203;SDS011;3643;52.460;13.322;2023-04-24T01:24:05;6.33;;;4.80;;
7203;SDS011;3643;52.460;13.322;2023-04-24T01:26:34;5.40;;;4.90;;
7203;SDS011;3643;52.460;13.322;2023-04-24T01:29:03;5.90;;;5.07;;
7203;SDS011;3643;52.460;13.322;2023-04-24T01:31:31;7.70;;;6.10;;
7203;SDS011;3643;52.460;13.322;2023-04-24T01:34:01;6.27;;;5.67;;
7203;SDS011;3643;52.460;13.322;2023-04-24T01:36:30;5.37;;;4.87;;
7203;SDS011;3643;52.460;13.322;2023-04-24T01:38:59;6.43;;;5.73;;
7203;SDS011;3643;52.460;13.322;2023-04-24T01:41:29;5.50;;;5.00;;
7203;SDS011;3643;52.460;13.322;2023-04-24T01:43:58;5.90;;;5.30;;
7203;SDS011;3643;52.460;13.322;2023-04-24T01:46:27;6.17;;;5.57;;
7203;SDS011;3643;52.460;13.322;2023-04-24T01:48:58;5.57;;;5.07;;
7203;SDS011;3643;52.460;13.322;2023-04-24T01:51:28;6.10;;;5.50;;
7203;SDS011;3643;52.460;13.322;2023-04-24T01:53:58;6.70;;;5.50;;
7203;SDS011;3643;52.460;13.322;2023-04-24T01:56:29;7.50;;;6.07;;
7203;SDS011;3643;52.460;13.322;2023-04-24T01:58:58;8.13;;;6.70;;
7203;SDS011;3643;52.460;13.322;2023-04-24T02:01:33;7.30;;;6.60;;
7203;SDS011;3643;52.460;13.322;2023-04-24T02:04:03;6.50;;;5.90;;
7203;SDS011;3643;52.460;13.322;2023-04-24T02:06:34;7.00;;;5.53;;
7203;SDS011;3643;52.460;13.322;2023-04-24T02:09:03;6.53;;;5.40;;
7203;SDS011;3643;52.460;13.322;2023-04-24T02:11:33;7.37;;;6.10;;
7203;SDS011;3643;52.460;13.322;2023-04-24T02:14:01;7.27;;;6.57;;
7203;SDS011;3643;52.460;13.322;2023-04-24T02:16:30;7.83;;;5.87;;
7203;SDS011;3643;52.460;13.322;2023-04-24T02:19:00;9.00;;;6.13;;
7203;SDS011;3643;52.460;13.322;2023-04-24T02:21:29;6.73;;;6.10;;
7203;SDS011;3643;52.460;13.322;2023-04-24T02:23:58;7.73;;;6.90;;
7203;SDS011;3643;52.460;13.322;2023-04-24T02:26:27;7.33;;;5.97;;
7203;SDS011;3643;52.460;13.322;2023-04-24T02:28:59;6.70;;;5.90;;
7203;SDS011;3643;52.460;13.322;2023-04-24T02:31:28;7.10;;;6.07;;
7203;SDS011;3643;52.460;13.322;2023-04-24T02:33:57;7.23;;;6.30;;
7203;SDS011;3643;52.460;13.322;2023-04-24T02:36:25;7.17;;;6.47;;
7203;SDS011;3643;52.460;13.322;2023-04-24T02:38:54;8.27;;;6.80;;
7203;SDS011;3643;52.460;13.322;2023-04-24T02:41:22;7.83;;;6.93;;
7203;SDS011;3643;52.460;13.322;2023-04-24T02:43:50;7.00;;;6.30;;
7203;SDS011;3643;52.460;13.322;2023-04-24T02:46:20;8.13;;;6.23;;
7203;SDS011;3643;52.460;13.322;2023-04-24T02:48:49;9.10;;;6.33;;
7203;SDS011;3643;52.460;13.322;2023-04-24T02:51:18;8.93;;;6.47;;
7203;SDS011;3643;52.460;13.322;2023-04-24T02:53:46;7.07;;;6.37;;
7203;SDS011;3643;52.460;13.322;2023-04-24T02:56:15;8.23;;;6.43;;
7203;SDS011;3643;52.460;13.322;2023-04-24T02:58:43;7.47;;;6.67;;
7203;SDS011;3643;52.460;13.322;2023-04-24T03:01:12;11.17;;;6.87;;
7203;SDS011;3643;52.460;13.322;2023-04-24T03:03:42;9.10;;;7.17;;
7203;SDS011;3643;52.460;13.322;2023-04-24T03:06:11;8.23;;;7.00;;
7203;SDS011;3643;52.460;13.322;2023-04-24T03:08:40;7.93;;;6.23;;
7203;SDS011;3643;52.460;13.322;2023-04-24T03:11:08;7.20;;;6.50;;
7203;SDS011;3643;52.460;13.322;2023-04-24T03:13:37;8.20;;;7.10;;
7203;SDS011;3643;52.460;13.322;2023-04-24T03:16:06;7.77;;;6.73;;
7203;SDS011;3643;52.460;13.322;2023-04-24T03:18:35;7.10;;;6.40;;
7203;SDS011;3643;52.460;13.322;2023-04-24T03:21:05;7.43;;;6.13;;
7203;SDS011;3643;52.460;13.322;2023-04-24T03:23:33;8.63;;;6.50;;
7203;SDS011;3643;52.460;13.322;2023-04-24T03:26:02;7.07;;;6.20;;
7203;SDS011;3643;52.460;13.322;2023-04-24T03:28:30;7.00;;;6.30;;
7203;SDS011;3643;52.460;13.322;2023-04-24T03:30:59;7.33;;;6.53;;
7203;SDS011;3643;52.460;13.322;2023-04-24T03:33:28;8.80;;;6.47;;
7203;SDS011;3643;52.460;13.322;2023-04-24T03:35:56;6.67;;;5.97;;
7203;SDS011;3643;52.460;13.322;2023-04-24T03:38:26;6.43;;;5.63;;
7203;SDS011;3643;52.460;13.322;2023-04-24T03:40:55;7.40;;;6.30;;
7203;SDS011;3643;52.460;13.322;2023-04-24T03:43:23;7.40;;;6.03;;
7203;SDS011;3643;52.460;13.322;2023-04-24T03:45:53;7.27;;;6.57;;
7203;SDS011;3643;52.460;13.322;2023-04-24T03:48:22;6.93;;;6.23;;
7203;SDS011;3643;52.460;13.322;2023-04-24T03:50:51;7.23;;;6.17;;
7203;SDS011;3643;52.460;13.322;2023-04-24T03:53:19;6.60;;;6.00;;
7203;SDS011;3643;52.460;13.322;2023-04-24T03:55:49;7.53;;;6.17;;
7203;SDS011;3643;52.460;13.322;2023-04-24T03:58:18;7.27;;;6.07;;
7203;SDS011;3643;52.460;13.322;2023-04-24T04:00:47;7.17;;;6.57;;
7203;SDS011;3643;52.460;13.322;2023-04-24T04:03:16;7.20;;;6.50;;
7203;SDS011;3643;52.460;13.322;2023-04-24T04:05:45;6.43;;;5.70;;
7203;SDS011;3643;52.460;13.322;2023-04-24T04:08:13;6.57;;;5.83;;
7203;SDS011;3643;52.460;13.322;2023-04-24T04:10:42;7.97;;;6.80;;
7203;SDS011;3643;52.460;13.322;2023-04-24T04:13:11;6.43;;;5.83;;
7203;SDS011;3643;52.460;13.322;2023-04-24T04:15:40;7.23;;;5.90;;
7203;SDS011;3643;52.460;13.322;2023-04-24T04:18:08;9.20;;;6.73;;
7203;SDS011;3643;52.460;13.322;2023-04-24T04:20:36;7.57;;;6.10;;
7203;SDS011;3643;52.460;13.322;2023-04-24T04:23:05;6.53;;;5.80;;
7203;SDS011;3643;52.460;13.322;2023-04-24T04:25:33;6.30;;;5.63;;
7203;SDS011;3643;52.460;13.322;2023-04-24T04:28:01;7.40;;;5.80;;
7203;SDS011;3643;52.460;13.322;2023-04-24T04:30:32;6.50;;;5.33;;
7203;SDS011;3643;52.460;13.322;2023-04-24T04:33:01;5.40;;;4.80;;
7203;SDS011;3643;52.460;13.322;2023-04-24T04:35:29;5.87;;;5.37;;
7203;SDS011;3643;52.460;13.322;2023-04-24T04:37:57;6.73;;;5.47;;
7203;SDS011;3643;52.460;13.322;2023-04-24T04:40:26;5.77;;;5.17;;
7203;SDS011;3643;52.460;13.322;2023-04-24T04:42:54;6.00;;;5.40;;
7203;SDS011;3643;52.460;13.322;2023-04-24T04:45:23;6.20;;;5.13;;
7203;SDS011;3643;52.460;13.322;2023-04-24T04:47:54;7.30;;;6.03;;
7203;SDS011;3643;52.460;13.322;2023-04-24T04:50:23;6.80;;;5.47;;
7203;SDS011;3643;52.460;13.322;2023-04-24T04:52:51;5.10;;;4.57;;
7203;SDS011;3643;52.460;13.322;2023-04-24T04:55:19;8.67;;;5.70;;
7203;SDS011;3643;52.460;13.322;2023-04-24T04:57:48;5.43;;;4.60;;
7203;SDS011;3643;52.460;13.322;2023-04-24T05:00:16;7.13;;;4.37;;
7203;SDS011;3643;52.460;13.322;2023-04-24T05:02:45;6.50;;;3.90;;
7203;SDS011;3643;52.460;13.322;2023-04-24T05:05:15;4.13;;;3.60;;
7203;SDS011;3643;52.460;13.322;2023-04-24T05:07:44;5.10;;;4.60;;
7203;SDS011;3643;52.460;13.322;2023-04-24T05:10:12;4.40;;;3.77;;
7203;SDS011;3643;52.460;13.322;2023-04-24T05:12:41;4.87;;;4.20;;
7203;SDS011;3643;52.460;13.322;2023-04-24T05:15:11;7.37;;;4.00;;
7203;SDS011;3643;52.460;13.322;2023-04-24T05:17:40;5.30;;;3.20;;
7203;SDS011;3643;52.460;13.322;2023-04-24T05:20:08;4.00;;;3.60;;
7203;SDS011;3643;52.460;13.322;2023-04-24T05:22:38;4.03;;;3.40;;
7203;SDS011;3643;52.460;13.322;2023-04-24T05:25:07;5.23;;;3.60;;
7203;SDS011;3643;52.460;13.322;2023-04-24T05:27:35;5.07;;;3.07;;
7203;SDS011;3643;52.460;13.322;2023-04-24T05:30:04;3.13;;;2.80;;
7203;SDS011;3643;52.460;13.322;2023-04-24T05:32:33;2.67;;;2.47;;
7203;SDS011;3643;52.460;13.322;2023-04-24T05:35:02;5.07;;;2.93;;
7203;SDS011;3643;52.460;13.322;2023-04-24T05:37:30;6.13;;;2.60;;
7203;SDS011;3643;52.460;13.322;2023-04-24T05:40:00;4.90;;;2.20;;
7203;SDS011;3643;52.460;13.322;2023-04-24T05:42:31;3.00;;;2.30;;
7203;SDS011;3643;52.460;13.322;2023-04-24T05:44:59;2.20;;;2.00;;
7203;SDS011;3643;52.460;13.322;2023-04-24T05:47:27;3.43;;;2.30;;
7203;SDS011;3643;52.460;13.322;2023-04-24T05:49:56;2.60;;;2.00;;
7203;SDS011;3643;52.460;13.322;2023-04-24T05:52:24;2.60;;;2.13;;
7203;SDS011;3643;52.460;13.322;2023-04-24T05:54:52;3.80;;;1.97;;
7203;SDS011;3643;52.460;13.322;2023-04-24T05:57:23;2.10;;;1.90;;
7203;SDS011;3643;52.460;13.322;2023-04-24T05:59:52;2.60;;;1.93;;
7203;SDS011;3643;52.460;13.322;2023-04-24T06:02:20;1.97;;;1.87;;
7203;SDS011;3643;52.460;13.322;2023-04-24T06:04:49;2.60;;;1.80;;
7203;SDS011;3643;52.460;13.322;2023-04-24T06:07:18;2.83;;;2.00;;
7203;SDS011;3643;52.460;13.322;2023-04-24T06:09:46;4.00;;;1.97;;
7203;SDS011;3643;52.460;13.322;2023-04-24T06:12:15;3.07;;;1.43;;
7203;SDS011;3643;52.460;13.322;2023-04-24T06:14:44;2.03;;;1.83;;
7203;SDS011;3643;52.460;13.322;2023-04-24T06:17:13;2.60;;;1.90;;
7203;SDS011;3643;52.460;13.322;2023-04-24T06:19:41;1.60;;;1.50;;
7203;SDS011;3643;52.460;13.322;2023-04-24T06:22:10;2.33;;;1.70;;
7203;SDS011;3643;52.460;13.322;2023-04-24T06:24:39;1.97;;;1.57;;
7203;SDS011;3643;52.460;13.322;2023-04-24T06:27:07;2.33;;;1.50;;
7203;SDS011;3643;52.460;13.322;2023-04-24T06:29:36;2.33;;;1.30;;
7203;SDS011;3643;52.460;13.322;2023-04-24T06:32:05;1.95;;;1.70;;
7203;SDS011;3643;52.460;13.322;2023-04-24T06:34:34;1.67;;;1.38;;
7203;SDS011;3643;52.460;13.322;2023-04-24T06:37:03;1.85;;;1.75;;
7203;SDS011;3643;52.460;13.322;2023-04-24T06:39:31;2.15;;;1.30;;
7203;SDS011;3643;52.460;13.322;2023-04-24T06:41:59;2.28;;;1.50;;
7203;SDS011;3643;52.460;13.322;2023-04-24T06:44:27;3.08;;;1.40;;
7203;SDS011;3643;52.460;13.322;2023-04-24T06:46:56;1.75;;;1.25;;
7203;SDS011;3643;52.460;13.322;2023-04-24T06:49:26;1.30;;;1.20;;
7203;SDS011;3643;52.460;13.322;2023-04-24T06:51:54;1.90;;;1.40;;
7203;SDS011;3643;52.460;13.322;2023-04-24T06:54:22;1.65;;;1.40;;
7203;SDS011;3643;52.460;13.322;2023-04-24T06:56:51;1.85;;;1.35;;
7203;SDS011;3643;52.460;13.322;2023-04-24T06:59:19;2.55;;;1.40;;
7203;SDS011;3643;52.460;13.322;2023-04-24T07:01:48;2.42;;;1.27;;
7203;SDS011;3643;52.460;13.322;2023-04-24T07:04:20;1.60;;;1.40;;
7203;SDS011;3643;52.460;13.322;2023-04-24T07:06:50;6.47;;;5.28;;
7203;SDS011;3643;52.460;13.322;2023-04-24T07:09:20;2.65;;;2.42;;
7203;SDS011;3643;52.460;13.322;2023-04-24T07:11:50;3.30;;;3.00;;
7203;SDS011;3643;52.460;13.322;2023-04-24T07:14:19;3.30;;;2.95;;
7203;SDS011;3643;52.460;13.322;2023-04-24T07:16:48;2.08;;;1.42;;
7203;SDS011;3643;52.460;13.322;2023-04-24T07:19:16;3.13;;;2.28;;
7203;SDS011;3643;52.460;13.322;2023-04-24T07:21:44;2.85;;;2.22;;
7203;SDS011;3643;52.460;13.322;2023-04-24T07:24:14;1.30;;;1.20;;
7203;SDS011;3643;52.460;13.322;2023-04-24T07:26:42;4.32;;;2.33;;
7203;SDS011;3643;52.460;13.322;2023-04-24T07:29:12;16.67;;;12.77;;
7203;SDS011;3643;52.460;13.322;2023-04-24T07:31:41;8.32;;;5.68;;
7203;SDS011;3643;52.460;13.322;2023-04-24T07:34:09;3.22;;;2.92;;
7203;SDS011;3643;52.460;13.322;2023-04-24T07:36:38;2.13;;;1.75;;
7203;SDS011;3643;52.460;13.322;2023-04-24T07:39:06;1.52;;;1.40;;
7203;SDS011;3643;52.460;13.322;2023-04-24T07:41:36;3.67;;;3.35;;
7203;SDS011;3643;52.460;13.322;2023-04-24T07:44:04;2.45;;;2.22;;
7203;SDS011;3643;52.460;13.322;2023-04-24T07:46:33;1.60;;;1.50;;
7203;SDS011;3643;52.460;13.322;2023-04-24T07:49:01;1.70;;;1.25;;
7203;SDS011;3643;52.460;13.322;2023-04-24T07:51:39;1.10;;;1.00;;
7203;SDS011;3643;52.460;13.322;2023-04-24T07:54:08;7.15;;;5.15;;
7203;SDS011;3643;52.460;13.322;2023-04-24T07:56:38;2.65;;;2.45;;
7203;SDS011;3643;52.460;13.322;2023-04-24T07:59:09;2.75;;;2.55;;
7203;SDS011;3643;52.460;13.322;2023-04-24T08:01:39;1.20;;;1.10;;
7203;SDS011;3643;52.460;13.322;2023-04-24T08:04:07;2.10;;;1.20;;
7203;SDS011;3643;52.460;13.322;2023-04-24T08:06:36;5.07;;;2.83;;
7203;SDS011;3643;52.460;13.322;2023-04-24T08:09:05;7.30;;;5.47;;
7203;SDS011;3643;52.460;13.322;2023-04-24T08:11:33;2.60;;;1.25;;
7203;SDS011;3643;52.460;13.322;2023-04-24T08:14:03;2.67;;;2.47;;
7203;SDS011;3643;52.460;13.322;2023-04-24T08:16:32;1.75;;;1.02;;
7203;SDS011;3643;52.460;13.322;2023-04-24T08:19:01;4.13;;;3.45;;
7203;SDS011;3643;52.460;13.322;2023-04-24T08:21:29;2.33;;;1.30;;
7203;SDS011;3643;52.460;13.322;2023-04-24T08:23:58;1.70;;;1.60;;
7203;SDS011;3643;52.460;13.322;2023-04-24T08:26:26;1.43;;;1.27;;
7203;SDS011;3643;52.460;13.322;2023-04-24T08:28:55;0.80;;;0.80;;
7203;SDS011;3643;52.460;13.322;2023-04-24T08:31:24;1.00;;;1.00;;
7203;SDS011;3643;52.460;13.322;2023-04-24T08:33:53;1.83;;;1.73;;
7203;SDS011;3643;52.460;13.322;2023-04-24T08:36:21;2.33;;;1.33;;
7203;SDS011;3643;52.460;13.322;2023-04-24T08:38:58;1.83;;;1.20;;
7203;SDS011;3643;52.460;13.322;2023-04-24T08:41:26;1.00;;;0.90;;
7203;SDS011;3643;52.460;13.322;2023-04-24T08:43:55;8.17;;;6.20;;
7203;SDS011;3643;52.460;13.322;2023-04-24T08:46:26;1.40;;;1.30;;
7203;SDS011;3643;52.460;13.322;2023-04-24T08:48:57;1.70;;;0.80;;
7203;SDS011;3643;52.460;13.322;2023-04-24T08:51:26;1.20;;;1.10;;
7203;SDS011;3643;52.460;13.322;2023-04-24T08:53:55;2.93;;;1.07;;
7203;SDS011;3643;52.460;13.322;2023-04-24T08:56:24;1.33;;;1.23;;
7203;SDS011;3643;52.460;13.322;2023-04-24T08:58:54;2.13;;;1.00;;
7203;SDS011;3643;52.460;13.322;2023-04-24T09:01:22;1.20;;;1.10;;
7203;SDS011;3643;52.460;13.322;2023-04-24T09:03:54;2.13;;;1.20;;
7203;SDS011;3643;52.460;13.322;2023-04-24T09:06:24;1.53;;;1.20;;
7203;SDS011;3643;52.460;13.322;2023-04-24T09:08:54;3.20;;;1.00;;
7203;SDS011;3643;52.460;13.322;2023-04-24T09:11:23;1.70;;;1.47;;
7203;SDS011;3643;52.460;13.322;2023-04-24T09:13:53;7.27;;;5.67;;
7203;SDS011;3643;52.460;13.322;2023-04-24T09:16:21;2.33;;;1.23;;
7203;SDS011;3643;52.460;13.322;2023-04-24T09:18:50;1.27;;;1.10;;
7203;SDS011;3643;52.460;13.322;2023-04-24T09:21:21;1.20;;;1.10;;
7203;SDS011;3643;52.460;13.322;2023-04-24T09:23:59;3.47;;;1.80;;
7203;SDS011;3643;52.460;13.322;2023-04-24T09:26:29;1.83;;;1.30;;
7203;SDS011;3643;52.460;13.322;2023-04-24T09:28:59;2.03;;;1.17;;
7203;SDS011;3643;52.460;13.322;2023-04-24T09:31:28;2.43;;;1.20;;
7203;SDS011;3643;52.460;13.322;2023-04-24T09:33:58;3.20;;;1.50;;
7203;SDS011;3643;52.460;13.322;2023-04-24T09:36:32;2.13;;;1.70;;
7203;SDS011;3643;52.460;13.322;2023-04-24T09:39:03;2.40;;;1.40;;
7203;SDS011;3643;52.460;13.322;2023-04-24T09:41:35;2.10;;;1.20;;
7203;SDS011;3643;52.460;13.322;2023-04-24T09:44:13;2.30;;;1.00;;
7203;SDS011;3643;52.460;13.322;2023-04-24T09:46:42;2.23;;;1.17;;
7203;SDS011;3643;52.460;13.322;2023-04-24T09:49:13;2.20;;;1.00;;
7203;SDS011;3643;52.460;13.322;2023-04-24T09:51:44;2.00;;;1.07;;
7203;SDS011;3643;52.460;13.322;2023-04-24T09:54:16;1.30;;;1.20;;
7203;SDS011;3643;52.460;13.322;2023-04-24T09:56:47;1.23;;;1.13;;
7203;SDS011;3643;52.460;13.322;2023-04-24T09:59:17;1.43;;;1.20;;
7203;SDS011;3643;52.460;13.322;2023-04-24T10:01:46;1.37;;;1.10;;
7203;SDS011;3643;52.460;13.322;2023-04-24T10:04:16;1.07;;;1.00;;
7203;SDS011;3643;52.460;13.322;2023-04-24T10:06:47;1.87;;;0.97;;
7203;SDS011;3643;52.460;13.322;2023-04-24T10:09:17;1.30;;;1.20;;
7203;SDS011;3643;52.460;13.322;2023-04-24T10:11:46;2.43;;;1.10;;
7203;SDS011;3643;52.460;13.322;2023-04-24T10:14:16;1.00;;;0.90;;
7203;SDS011;3643;52.460;13.322;2023-04-24T10:16:47;1.63;;;1.33;;
7203;SDS011;3643;52.460;13.322;2023-04-24T10:19:16;1.43;;;1.33;;
7203;SDS011;3643;52.460;13.322;2023-04-24T10:21:47;1.00;;;1.00;;
7203;SDS011;3643;52.460;13.322;2023-04-24T10:24:17;0.83;;;0.83;;
7203;SDS011;3643;52.460;13.322;2023-04-24T10:26:47;0.97;;;0.90;;
7203;SDS011;3643;52.460;13.322;2023-04-24T10:29:16;2.27;;;1.10;;
7203;SDS011;3643;52.460;13.322;2023-04-24T10:31:47;0.80;;;0.80;;
7203;SDS011;3643;52.460;13.322;2023-04-24T10:34:16;2.07;;;1.07;;
7203;SDS011;3643;52.460;13.322;2023-04-24T10:36:50;1.90;;;1.07;;
7203;SDS011;3643;52.460;13.322;2023-04-24T10:39:23;1.23;;;1.13;;
7203;SDS011;3643;52.460;13.322;2023-04-24T10:41:53;4.10;;;2.27;;
7203;SDS011;3643;52.460;13.322;2023-04-24T10:44:23;6.93;;;3.83;;
7203;SDS011;3643;52.460;13.322;2023-04-24T10:46:53;2.47;;;2.10;;
7203;SDS011;3643;52.460;13.322;2023-04-24T10:49:27;3.03;;;2.20;;
7203;SDS011;3643;52.460;13.322;2023-04-24T10:52:01;1.30;;;1.20;;
7203;SDS011;3643;52.460;13.322;2023-04-24T10:54:34;1.30;;;1.20;;
7203;SDS011;3643;52.460;13.322;2023-04-24T11:00:15;1.93;;;1.20;;
7203;SDS011;3643;52.460;13.322;2023-04-24T11:02:46;1.77;;;1.20;;
7203;SDS011;3643;52.460;13.322;2023-04-24T11:05:17;3.03;;;1.10;;
7203;SDS011;3643;52.460;13.322;2023-04-24T11:10:40;2.70;;;1.20;;
7203;SDS011;3643;52.460;13.322;2023-04-24T11:13:14;1.37;;;1.27;;
7203;SDS011;3643;52.460;13.322;2023-04-24T11:15:43;1.13;;;1.00;;
7203;SDS011;3643;52.460;13.322;2023-04-24T11:18:14;2.73;;;1.20;;
7203;SDS011;3643;52.460;13.322;2023-04-24T11:20:43;4.90;;;3.10;;
7203;SDS011;3643;52.460;13.322;2023-04-24T11:23:13;17.67;;;13.47;;
7203;SDS011;3643;52.460;13.322;2023-04-24T11:25:42;2.00;;;1.20;;
7203;SDS011;3643;52.460;13.322;2023-04-24T11:28:14;1.53;;;1.43;;
7203;SDS011;3643;52.460;13.322;2023-04-24T11:30:43;2.83;;;1.53;;
7203;SDS011;3643;52.460;13.322;2023-04-24T11:33:12;1.17;;;1.10;;
7203;SDS011;3643;52.460;13.322;2023-04-24T11:35:48;4.30;;;1.30;;
7203;SDS011;3643;52.460;13.322;2023-04-24T11:38:20;1.50;;;1.40;;
7203;SDS011;3643;52.460;13.322;2023-04-24T11:40:51;3.70;;;2.90;;
7203;SDS011;3643;52.460;13.322;2023-04-24T11:43:20;2.37;;;1.03;;
7203;SDS011;3643;52.460;13.322;2023-04-24T11:45:49;1.63;;;1.53;;
7203;SDS011;3643;52.460;13.322;2023-04-24T11:48:18;1.40;;;1.30;;
7203;SDS011;3643;52.460;13.322;2023-04-24T11:50:49;1.30;;;1.20;;
7203;SDS011;3643;52.460;13.322;2023-04-24T11:53:18;2.17;;;1.30;;
7203;SDS011;3643;52.460;13.322;2023-04-24T11:55:49;2.27;;;1.40;;
7203;SDS011;3643;52.460;13.322;2023-04-24T11:58:20;2.63;;;1.37;;
7203;SDS011;3643;52.460;13.322;2023-04-24T12:00:55;1.23;;;0.97;;
7203;SDS011;3643;52.460;13.322;2023-04-24T12:03:25;2.50;;;1.20;;
7203;SDS011;3643;52.460;13.322;2023-04-24T12:06:04;4.83;;;1.30;;
7203;SDS011;3643;52.460;13.322;2023-04-24T12:08:36;1.73;;;1.37;;
7203;SDS011;3643;52.460;13.322;2023-04-24T12:11:05;3.90;;;1.33;;
7203;SDS011;3643;52.460;13.322;2023-04-24T12:13:35;1.33;;;1.00;;
7203;SDS011;3643;52.460;13.322;2023-04-24T12:16:04;3.50;;;1.10;;
7203;SDS011;3643;52.460;13.322;2023-04-24T12:18:32;1.60;;;1.13;;
7203;SDS011;3643;52.460;13.322;2023-04-24T12:21:21;2.30;;;1.13;;
7203;SDS011;3643;52.460;13.322;2023-04-24T12:23:55;1.20;;;1.10;;
7203;SDS011;3643;52.460;13.322;2023-04-24T12:26:24;1.30;;;1.00;;
7203;SDS011;3643;52.460;13.322;2023-04-24T12:28:53;1.70;;;0.97;;
7203;SDS011;3643;52.460;13.322;2023-04-24T12:31:21;0.80;;;0.80;;
7203;SDS011;3643;52.460;13.322;2023-04-24T12:33:50;1.90;;;1.03;;
7203;SDS011;3643;52.460;13.322;2023-04-24T12:36:18;2.90;;;1.10;;
7203;SDS011;3643;52.460;13.322;2023-04-24T12:38:52;3.33;;;1.00;;
7203;SDS011;3643;52.460;13.322;2023-04-24T12:41:22;3.40;;;1.10;;
7203;SDS011;3643;52.460;13.322;2023-04-24T12:43:51;0.83;;;0.83;;
7203;SDS011;3643;52.460;13.322;2023-04-24T12:46:21;3.57;;;0.83;;
7203;SDS011;3643;52.460;13.322;2023-04-24T12:48:49;1.23;;;0.87;;
7203;SDS011;3643;52.460;13.322;2023-04-24T12:51:18;1.80;;;1.07;;
7203;SDS011;3643;52.460;13.322;2023-04-24T12:53:47;2.90;;;1.07;;
7203;SDS011;3643;52.460;13.322;2023-04-24T12:56:15;1.07;;;0.90;;
7203;SDS011;3643;52.460;13.322;2023-04-24T12:58:45;1.33;;;1.00;;
7203;SDS011;3643;52.460;13.322;2023-04-24T13:01:14;1.07;;;0.90;;
7203;SDS011;3643;52.460;13.322;2023-04-24T13:03:42;1.87;;;1.00;;
7203;SDS011;3643;52.460;13.322;2023-04-24T13:06:12;1.00;;;0.90;;
7203;SDS011;3643;52.460;13.322;2023-04-24T13:08:40;3.70;;;1.10;;
7203;SDS011;3643;52.460;13.322;2023-04-24T13:11:08;4.10;;;1.23;;
7203;SDS011;3643;52.460;13.322;2023-04-24T13:13:37;1.30;;;0.90;;
7203;SDS011;3643;52.460;13.322;2023-04-24T13:16:08;1.87;;;1.00;;
7203;SDS011;3643;52.460;13.322;2023-04-24T13:18:37;2.40;;;1.00;;
7203;SDS011;3643;52.460;13.322;2023-04-24T13:21:05;0.80;;;0.80;;
7203;SDS011;3643;52.460;13.322;2023-04-24T13:23:34;0.90;;;0.90;;
7203;SDS011;3643;52.460;13.322;2023-04-24T13:26:03;3.13;;;1.00;;
7203;SDS011;3643;52.460;13.322;2023-04-24T13:28:31;0.83;;;0.77;;
7203;SDS011;3643;52.460;13.322;2023-04-24T13:31:00;0.90;;;0.90;;
7203;SDS011;3643;52.460;13.322;2023-04-24T13:33:30;2.20;;;1.00;;
7203;SDS011;3643;52.460;13.322;2023-04-24T13:35:58;1.57;;;1.10;;
7203;SDS011;3643;52.460;13.322;2023-04-24T13:38:26;1.10;;;1.00;;
7203;SDS011;3643;52.460;13.322;2023-04-24T13:40:55;1.00;;;1.00;;
7203;SDS011;3643;52.460;13.322;2023-04-24T13:43:24;2.33;;;1.20;;
7203;SDS011;3643;52.460;13.322;2023-04-24T13:45:52;1.27;;;0.80;;
7203;SDS011;3643;52.460;13.322;2023-04-24T13:48:21;1.50;;;0.90;;
7203;SDS011;3643;52.460;13.322;2023-04-24T13:50:51;1.00;;;1.00;;
7203;SDS011;3643;52.460;13.322;2023-04-24T13:53:19;1.67;;;0.90;;
7203;SDS011;3643;52.460;13.322;2023-04-24T13:55:48;1.20;;;0.90;;
7203;SDS011;3643;52.460;13.322;2023-04-24T13:58:17;0.70;;;0.70;;
7203;SDS011;3643;52.460;13.322;2023-04-24T14:00:46;1.47;;;0.97;;
7203;SDS011;3643;52.460;13.322;2023-04-24T14:03:14;2.60;;;1.07;;
7203;SDS011;3643;52.460;13.322;2023-04-24T14:05:43;1.00;;;0.90;;
7203;SDS011;3643;52.460;13.322;2023-04-24T14:08:13;0.90;;;0.90;;
7203;SDS011;3643;52.460;13.322;2023-04-24T14:10:42;0.97;;;0.97;;
7203;SDS011;3643;52.460;13.322;2023-04-24T14:13:10;1.17;;;1.10;;
7203;SDS011;3643;52.460;13.322;2023-04-24T14:15:39;1.00;;;1.00;;
7203;SDS011;3643;52.460;13.322;2023-04-24T14:18:08;1.83;;;1.00;;
7203;SDS011;3643;52.460;13.322;2023-04-24T14:20:36;1.00;;;0.90;;
7203;SDS011;3643;52.460;13.322;2023-04-24T14:23:05;1.93;;;1.00;;
7203;SDS011;3643;52.460;13.322;2023-04-24T14:25:35;1.13;;;1.00;;
7203;SDS011;3643;52.460;13.322;2023-04-24T14:28:03;2.60;;;0.90;;
7203;SDS011;3643;52.460;13.322;2023-04-24T14:30:34;1.00;;;1.00;;
7203;SDS011;3643;52.460;13.322;2023-04-24T14:33:03;2.30;;;1.10;;
7203;SDS011;3643;52.460;13.322;2023-04-24T14:35:32;1.70;;;1.00;;
7203;SDS011;3643;52.460;13.322;2023-04-24T14:38:01;0.90;;;0.90;;
7203;SDS011;3643;52.460;13.322;2023-04-24T14:40:30;2.50;;;1.20;;
7203;SDS011;3643;52.460;13.322;2023-04-24T14:43:03;1.00;;;1.00;;
7203;SDS011;3643;52.460;13.322;2023-04-24T14:45:31;1.10;;;1.10;;
7203;SDS011;3643;52.460;13.322;2023-04-24T14:48:00;2.77;;;1.17;;
7203;SDS011;3643;52.460;13.322;2023-04-24T14:50:28;1.77;;;1.17;;
7203;SDS011;3643;52.460;13.322;2023-04-24T14:52:57;1.57;;;1.17;;
7203;SDS011;3643;52.460;13.322;2023-04-24T14:55:25;1.07;;;1.03;;
7203;SDS011;3643;52.460;13.322;2023-04-24T14:57:54;1.30;;;1.20;;
7203;SDS011;3643;52.460;13.322;2023-04-24T15:00:24;1.10;;;1.00;;
7203;SDS011;3643;52.460;13.322;2023-04-24T15:02:53;3.23;;;1.30;;
7203;SDS011;3643;52.460;13.322;2023-04-24T15:05:21;1.60;;;1.20;;
7203;SDS011;3643;52.460;13.322;2023-04-24T15:07:51;1.50;;;1.10;;
7203;SDS011;3643;52.460;13.322;2023-04-24T15:10:20;1.87;;;1.07;;
7203;SDS011;3643;52.460;13.322;2023-04-24T15:12:49;1.30;;;1.20;;
7203;SDS011;3643;52.460;13.322;2023-04-24T15:15:17;1.13;;;1.03;;
7203;SDS011;3643;52.460;13.322;2023-04-24T15:17:47;2.33;;;1.30;;
7203;SDS011;3643;52.460;13.322;2023-04-24T15:20:16;1.97;;;1.27;;